createdAt,value
2023-02-23T00:00:30.350Z,9.80
2023-02-23T00:02:59.082Z,12.77
2023-02-23T00:05:26.634Z,10.20
2023-02-23T00:07:55.576Z,10.13
2023-02-23T00:10:33.085Z,11.30
2023-02-23T00:13:00.101Z,9.60
2023-02-23T00:15:27.662Z,10.80
2023-02-23T00:17:55.762Z,8.40
2023-02-23T00:20:28.199Z,10.00
2023-02-23T00:22:56.256Z,12.03
2023-02-23T00:25:24.054Z,12.97
2023-02-23T00:27:52.140Z,8.47
2023-02-23T00:30:21.679Z,10.83
2023-02-23T00:32:49.997Z,8.80
2023-02-23T00:35:17.592Z,9.27
2023-02-23T00:37:46.067Z,9.77
2023-02-23T00:40:16.674Z,9.33
2023-02-23T00:42:47.072Z,9.40
2023-02-23T00:45:16.922Z,10.87
2023-02-23T00:47:48.540Z,10.97
2023-02-23T00:50:16.340Z,9.77
2023-02-23T00:52:45.313Z,11.70
2023-02-23T00:55:15.237Z,8.30
2023-02-23T00:57:42.026Z,9.93
2023-02-23T01:00:18.591Z,9.10
2023-02-23T01:02:45.583Z,12.20
2023-02-23T01:05:13.610Z,11.23
2023-02-23T01:07:40.821Z,9.70
2023-02-23T01:10:19.323Z,10.60
2023-02-23T01:12:48.304Z,11.23
2023-02-23T01:15:19.874Z,10.53
2023-02-23T01:17:46.841Z,10.30
2023-02-23T01:20:19.403Z,9.83
2023-02-23T01:22:55.279Z,11.53
2023-02-23T01:25:28.584Z,11.20
2023-02-23T01:28:00.596Z,10.03
2023-02-23T01:30:31.876Z,11.70
2023-02-23T01:33:03.500Z,11.63
2023-02-23T01:35:30.393Z,10.50
2023-02-23T01:38:00.301Z,15.00
2023-02-23T01:40:31.941Z,11.47
2023-02-23T01:42:59.767Z,9.67
2023-02-23T01:45:28.211Z,11.90
2023-02-23T01:47:57.275Z,11.00
2023-02-23T01:50:30.641Z,12.10
2023-02-23T01:52:58.824Z,9.47
2023-02-23T01:55:26.332Z,12.77
2023-02-23T01:58:11.676Z,12.57
2023-02-23T02:00:38.432Z,12.90
2023-02-23T02:03:12.191Z,12.13
2023-02-23T02:05:41.206Z,11.17
2023-02-23T02:08:10.376Z,13.47
2023-02-23T02:10:40.228Z,11.63
2023-02-23T02:13:08.191Z,13.60
2023-02-23T02:15:38.721Z,11.20
2023-02-23T02:18:18.747Z,13.37
2023-02-23T02:21:27.149Z,12.10
2023-02-23T02:24:02.684Z,12.43
2023-02-23T02:26:38.850Z,13.57
2023-02-23T02:29:47.964Z,11.97
2023-02-23T02:32:39.436Z,13.70
2023-02-23T02:35:29.091Z,12.23
2023-02-23T02:38:16.557Z,15.37
2023-02-23T02:40:55.989Z,15.13
2023-02-23T02:43:46.967Z,15.27
2023-02-23T02:46:14.938Z,13.37
2023-02-23T02:49:00.093Z,13.43
2023-02-23T02:51:29.319Z,14.87
2023-02-23T02:54:07.573Z,14.00
2023-02-23T02:56:40.941Z,14.17
2023-02-23T02:59:33.726Z,13.87
2023-02-23T03:02:18.691Z,14.90
2023-02-23T03:05:03.837Z,16.60
2023-02-23T03:07:55.562Z,14.67
2023-02-23T03:11:02.736Z,15.63
2023-02-23T03:13:57.134Z,14.27
2023-02-23T03:17:15.315Z,14.20
2023-02-23T03:20:13.635Z,14.57
2023-02-23T03:23:16.087Z,16.90
2023-02-23T03:26:09.859Z,16.93
2023-02-23T03:29:09.333Z,14.00
2023-02-23T03:32:08.215Z,15.23
2023-02-23T03:35:05.933Z,13.93
2023-02-23T03:37:57.748Z,15.57
2023-02-23T03:40:54.319Z,14.10
2023-02-23T03:43:44.195Z,16.90
2023-02-23T03:46:31.433Z,14.73
2023-02-23T03:49:17.956Z,20.77
2023-02-23T03:52:05.647Z,14.87
2023-02-23T03:55:07.026Z,19.43
2023-02-23T03:57:53.181Z,13.90
2023-02-23T04:00:48.477Z,14.40
2023-02-23T04:03:35.114Z,17.53
2023-02-23T04:06:20.875Z,13.57
2023-02-23T04:09:05.980Z,15.63
2023-02-23T04:12:15.010Z,16.57
2023-02-23T04:14:51.631Z,13.47
2023-02-23T04:17:18.738Z,12.60
2023-02-23T04:19:56.843Z,14.97
2023-02-23T04:22:23.869Z,14.60
2023-02-23T04:24:50.884Z,18.80
2023-02-23T04:27:20.291Z,15.90
2023-02-23T04:29:47.060Z,12.97
2023-02-23T04:32:15.663Z,18.77
2023-02-23T04:34:45.461Z,14.30
2023-02-23T04:37:12.367Z,13.77
2023-02-23T04:39:39.158Z,12.30
2023-02-23T04:42:06.127Z,12.80
2023-02-23T04:44:32.888Z,12.93
2023-02-23T04:46:59.680Z,13.47
2023-02-23T04:49:26.554Z,13.13
2023-02-23T04:51:55.590Z,12.47
2023-02-23T04:54:22.530Z,15.80
2023-02-23T04:56:49.313Z,11.83
2023-02-23T04:59:18.652Z,12.00
2023-02-23T05:01:45.498Z,11.70
2023-02-23T05:04:12.379Z,13.93
2023-02-23T05:06:39.147Z,14.33
2023-02-23T05:09:07.001Z,13.80
2023-02-23T05:11:33.782Z,11.03
2023-02-23T05:14:00.593Z,16.67
2023-02-23T05:16:28.069Z,13.77
2023-02-23T05:18:57.381Z,13.30
2023-02-23T05:21:25.040Z,13.97
2023-02-23T05:23:54.392Z,10.47
2023-02-23T05:26:21.174Z,11.77
2023-02-23T05:28:48.794Z,11.13
2023-02-23T05:31:15.731Z,13.27
2023-02-23T05:33:45.829Z,12.80
2023-02-23T05:36:13.888Z,13.10
2023-02-23T05:38:42.983Z,14.77
2023-02-23T05:41:11.633Z,14.00
2023-02-23T05:43:41.036Z,14.07
2023-02-23T05:46:12.002Z,14.60
2023-02-23T05:48:38.942Z,14.03
2023-02-23T05:51:07.124Z,10.93
2023-02-23T05:53:33.983Z,12.80
2023-02-23T05:56:01.989Z,11.03
2023-02-23T05:58:28.905Z,10.23
2023-02-23T06:00:56.356Z,13.77
2023-02-23T06:03:25.854Z,12.10
2023-02-23T06:05:53.499Z,11.50
2023-02-23T06:08:20.417Z,11.00
2023-02-23T06:10:47.326Z,11.80
2023-02-23T06:13:14.454Z,10.47
2023-02-23T06:15:41.654Z,13.57
2023-02-23T06:18:11.600Z,13.07
2023-02-23T06:20:40.301Z,13.00
2023-02-23T06:23:07.634Z,15.00
2023-02-23T06:25:37.095Z,13.63
2023-02-23T06:28:04.065Z,11.43
2023-02-23T06:30:30.995Z,13.43
2023-02-23T06:32:59.964Z,14.03
2023-02-23T06:35:28.967Z,10.93
2023-02-23T06:37:55.958Z,11.53
2023-02-23T06:40:24.981Z,11.83
2023-02-23T06:42:51.864Z,10.23
2023-02-23T06:45:19.452Z,9.23
2023-02-23T06:47:47.193Z,13.07
2023-02-23T06:50:19.111Z,14.40
2023-02-23T06:52:46.133Z,16.03
2023-02-23T06:55:15.784Z,13.37
2023-02-23T06:57:44.841Z,11.70
2023-02-23T07:00:15.189Z,11.43
2023-02-23T07:02:44.847Z,11.53
2023-02-23T07:05:11.637Z,14.63
2023-02-23T07:07:40.944Z,10.80
2023-02-23T07:10:08.174Z,13.37
2023-02-23T07:12:34.947Z,14.37
2023-02-23T07:15:04.049Z,19.47
2023-02-23T07:17:38.381Z,14.83
2023-02-23T07:20:05.655Z,13.23
2023-02-23T07:22:34.245Z,13.13
2023-02-23T07:25:01.257Z,13.10
2023-02-23T07:27:28.261Z,13.50
2023-02-23T07:29:55.105Z,13.93
2023-02-23T07:32:22.056Z,12.90
2023-02-23T07:34:48.976Z,13.53
2023-02-23T07:37:17.112Z,14.90
2023-02-23T07:39:44.198Z,15.40
2023-02-23T07:42:11.001Z,18.67
2023-02-23T07:44:40.325Z,12.90
2023-02-23T07:47:07.341Z,18.17
2023-02-23T07:49:37.419Z,13.90
2023-02-23T07:52:04.392Z,15.43
2023-02-23T07:54:36.049Z,11.60
2023-02-23T07:57:02.852Z,12.93
2023-02-23T07:59:29.694Z,12.33
2023-02-23T08:01:56.578Z,15.20
2023-02-23T08:04:25.744Z,13.83
2023-02-23T08:06:52.536Z,14.43
2023-02-23T08:09:21.515Z,13.73
2023-02-23T08:11:48.310Z,16.77
2023-02-23T08:14:15.173Z,17.00
2023-02-23T08:16:41.977Z,13.23
2023-02-23T08:19:11.236Z,16.60
2023-02-23T08:21:38.085Z,12.60
2023-02-23T08:24:05.020Z,17.00
2023-02-23T08:26:31.930Z,13.33
2023-02-23T08:28:58.728Z,17.97
2023-02-23T08:31:28.119Z,15.27
2023-02-23T08:33:57.284Z,15.37
2023-02-23T08:36:24.130Z,13.33
2023-02-23T08:38:51.027Z,16.93
2023-02-23T08:41:18.403Z,15.10
2023-02-23T08:43:45.576Z,16.23
2023-02-23T08:46:14.818Z,15.57
2023-02-23T08:48:41.620Z,14.97
2023-02-23T08:51:08.612Z,15.50
2023-02-23T08:53:35.817Z,12.90
2023-02-23T08:56:04.630Z,13.60
2023-02-23T08:58:31.783Z,13.57
2023-02-23T09:00:58.803Z,14.37
2023-02-23T09:03:30.171Z,14.17
2023-02-23T09:06:04.788Z,21.40
2023-02-23T09:08:31.590Z,14.93
2023-02-23T09:11:00.615Z,17.50
2023-02-23T09:13:31.911Z,16.00
2023-02-23T09:16:01.000Z,15.33
2023-02-23T09:18:29.537Z,12.33
2023-02-23T09:20:56.766Z,18.70
2023-02-23T09:23:24.255Z,14.00
2023-02-23T09:25:51.060Z,16.97
2023-02-23T09:28:21.082Z,15.97
2023-02-23T09:30:48.337Z,15.80
2023-02-23T09:33:15.225Z,15.07
2023-02-23T09:35:42.062Z,16.30
2023-02-23T09:38:11.085Z,14.47
2023-02-23T09:40:49.861Z,17.50
2023-02-23T09:43:25.078Z,15.33
2023-02-23T09:46:27.033Z,17.00
2023-02-23T09:48:57.419Z,17.93
2023-02-23T09:51:26.673Z,15.53
2023-02-23T09:54:02.550Z,12.73
2023-02-23T09:56:44.342Z,15.23
2023-02-23T09:59:15.910Z,14.73
2023-02-23T10:01:51.203Z,15.93
2023-02-23T10:04:22.396Z,13.40
2023-02-23T10:07:01.320Z,18.90
2023-02-23T10:09:44.337Z,19.30
2023-02-23T10:12:35.094Z,16.57
2023-02-23T10:15:13.966Z,15.97
2023-02-23T10:18:05.650Z,15.90
2023-02-23T10:20:38.286Z,15.17
2023-02-23T10:23:09.657Z,16.50
2023-02-23T10:25:38.551Z,15.43
2023-02-23T10:28:05.315Z,15.00
2023-02-23T10:30:35.707Z,18.47
2023-02-23T10:33:05.733Z,15.83
2023-02-23T10:35:33.751Z,16.33
2023-02-23T10:38:01.076Z,19.70
2023-02-23T10:40:29.145Z,15.00
2023-02-23T10:42:56.579Z,18.40
2023-02-23T10:45:29.812Z,25.63
2023-02-23T10:48:05.540Z,18.93
2023-02-23T10:50:32.689Z,16.60
2023-02-23T10:53:12.738Z,15.93
2023-02-23T10:55:39.506Z,17.67
2023-02-23T10:58:17.101Z,16.97
2023-02-23T11:01:02.512Z,17.37
2023-02-23T11:03:42.831Z,12.73
2023-02-23T11:06:35.604Z,16.03
2023-02-23T11:09:45.653Z,19.77
2023-02-23T11:12:29.712Z,17.93
2023-02-23T11:14:57.238Z,19.87
2023-02-23T11:17:33.920Z,17.37
2023-02-23T11:20:30.532Z,18.90
2023-02-23T11:23:09.513Z,17.63
2023-02-23T11:25:43.401Z,17.87
2023-02-23T11:28:22.309Z,17.37
2023-02-23T11:30:49.295Z,17.83
2023-02-23T11:33:17.703Z,19.43
2023-02-23T11:35:44.529Z,18.83
2023-02-23T11:38:32.498Z,14.20
2023-02-23T11:41:11.359Z,15.50
2023-02-23T11:43:40.602Z,13.93
2023-02-23T11:46:11.566Z,15.90
2023-02-23T11:48:44.540Z,17.57
2023-02-23T11:51:11.351Z,15.37
2023-02-23T11:53:40.507Z,13.30
2023-02-23T11:56:13.400Z,17.07
2023-02-23T11:59:00.076Z,18.93
2023-02-23T12:01:45.589Z,17.37
2023-02-23T12:04:52.313Z,18.73
2023-02-23T12:07:43.797Z,12.10
2023-02-23T12:10:13.816Z,12.37
2023-02-23T12:13:02.720Z,15.70
2023-02-23T12:15:40.730Z,13.57
2023-02-23T12:18:50.844Z,18.83
2023-02-23T12:21:32.725Z,13.73
2023-02-23T12:24:08.461Z,15.10
2023-02-23T12:26:41.502Z,18.70
2023-02-23T12:29:37.044Z,15.47
2023-02-23T12:32:10.597Z,15.23
2023-02-23T12:35:14.614Z,13.83
2023-02-23T12:37:55.452Z,14.97
2023-02-23T12:40:23.091Z,14.97
2023-02-23T12:42:56.729Z,18.67
2023-02-23T12:45:34.923Z,14.20
2023-02-23T12:48:10.078Z,13.00
2023-02-23T12:50:43.489Z,15.67
2023-02-23T12:53:28.968Z,14.73
2023-02-23T12:56:04.835Z,14.70
2023-02-23T12:58:42.812Z,13.47
2023-02-23T13:01:12.879Z,19.13
2023-02-23T13:04:45.070Z,16.40
2023-02-23T13:07:34.495Z,11.03
2023-02-23T13:10:28.958Z,15.53
2023-02-23T13:13:28.342Z,14.10
2023-02-23T13:16:26.364Z,11.83
2023-02-23T13:19:10.278Z,13.63
2023-02-23T13:21:59.356Z,14.17
2023-02-23T13:24:40.235Z,13.87
2023-02-23T13:27:18.590Z,14.73
2023-02-23T13:29:49.611Z,16.93
2023-02-23T13:32:24.403Z,15.80
2023-02-23T13:34:58.218Z,13.83
2023-02-23T13:37:45.566Z,12.73
2023-02-23T13:40:47.733Z,17.67
2023-02-23T13:43:29.717Z,13.43
2023-02-23T13:46:29.661Z,16.80
2023-02-23T13:49:17.261Z,15.73
2023-02-23T13:51:57.698Z,13.87
2023-02-23T13:54:33.797Z,11.93
2023-02-23T13:57:05.582Z,15.47
2023-02-23T13:59:38.579Z,15.33
2023-02-23T14:02:41.530Z,15.00
2023-02-23T14:05:17.337Z,14.33
2023-02-23T14:07:48.187Z,14.90
2023-02-23T14:10:27.171Z,13.97
2023-02-23T14:13:07.249Z,13.47
2023-02-23T14:15:39.759Z,12.87
2023-02-23T14:18:18.974Z,14.57
2023-02-23T14:21:07.630Z,17.03
2023-02-23T14:24:02.465Z,12.53
2023-02-23T14:26:29.229Z,19.00
2023-02-23T14:29:27.257Z,13.87
2023-02-23T14:32:00.267Z,18.40
2023-02-23T14:34:52.035Z,13.97
2023-02-23T14:37:38.102Z,15.17
2023-02-23T14:40:10.827Z,15.87
2023-02-23T14:42:38.004Z,19.40
2023-02-23T14:45:28.951Z,17.07
2023-02-23T14:48:01.757Z,13.67
2023-02-23T14:50:32.487Z,14.73
2023-02-23T14:53:01.415Z,14.97
2023-02-23T14:55:29.793Z,12.97
2023-02-23T14:57:56.818Z,15.50
2023-02-23T15:00:35.011Z,13.90
2023-02-23T15:03:02.696Z,16.57
2023-02-23T15:05:34.314Z,13.07
2023-02-23T15:08:04.780Z,12.97
2023-02-23T15:10:35.155Z,16.47
2023-02-23T15:13:07.646Z,16.37
2023-02-23T15:15:34.478Z,16.97
2023-02-23T15:18:02.421Z,17.83
2023-02-23T15:20:33.652Z,15.30
2023-02-23T15:23:02.591Z,15.53
2023-02-23T15:25:41.490Z,18.87
2023-02-23T15:28:33.316Z,15.47
2023-02-23T15:31:01.113Z,13.63
2023-02-23T15:33:31.112Z,17.70
2023-02-23T15:36:14.620Z,14.23
2023-02-23T15:38:46.269Z,16.70
2023-02-23T15:41:36.974Z,15.57
2023-02-23T15:44:10.206Z,15.90
2023-02-23T15:46:37.547Z,14.57
2023-02-23T15:49:07.555Z,17.17
2023-02-23T15:51:36.020Z,20.50
2023-02-23T15:54:07.901Z,19.17
2023-02-23T15:56:35.359Z,20.97
2023-02-23T15:59:03.901Z,17.00
2023-02-23T16:01:31.734Z,16.63
2023-02-23T16:04:13.154Z,17.70
2023-02-23T16:06:53.850Z,14.70
2023-02-23T16:09:24.130Z,19.07
2023-02-23T16:11:51.101Z,17.13
2023-02-23T16:14:19.949Z,16.83
2023-02-23T16:16:53.302Z,16.83
2023-02-23T16:19:30.524Z,19.03
2023-02-23T16:21:57.620Z,20.10
2023-02-23T16:24:28.585Z,20.43
2023-02-23T16:27:02.147Z,21.80
2023-02-23T16:29:45.074Z,17.63
2023-02-23T16:32:17.225Z,18.90
2023-02-23T16:34:54.786Z,18.50
2023-02-23T16:37:28.012Z,20.80
2023-02-23T16:40:00.236Z,18.87
2023-02-23T16:42:34.483Z,22.00
2023-02-23T16:45:04.045Z,21.93
2023-02-23T16:47:47.663Z,24.67
2023-02-23T16:50:22.507Z,20.90
2023-02-23T16:52:53.284Z,19.43
2023-02-23T16:55:27.430Z,25.97
2023-02-23T16:57:59.385Z,19.90
2023-02-23T17:00:31.956Z,20.53
2023-02-23T17:03:00.711Z,24.80
2023-02-23T17:05:30.895Z,21.17
2023-02-23T17:07:59.190Z,24.13
2023-02-23T17:10:29.231Z,21.10
2023-02-23T17:13:03.186Z,29.83
2023-02-23T17:15:37.748Z,23.97
2023-02-23T17:18:04.968Z,22.30
2023-02-23T17:20:34.002Z,22.27
2023-02-23T17:23:01.604Z,22.03
2023-02-23T17:25:28.570Z,24.37
2023-02-23T17:27:56.236Z,27.57
2023-02-23T17:30:25.945Z,22.13
2023-02-23T17:32:53.810Z,24.37
2023-02-23T17:35:21.044Z,23.10
2023-02-23T17:37:48.017Z,29.73
2023-02-23T17:40:26.304Z,24.37
2023-02-23T17:42:55.767Z,26.17
2023-02-23T17:45:22.841Z,26.80
2023-02-23T17:47:53.013Z,26.87
2023-02-23T17:50:20.227Z,27.30
2023-02-23T17:52:50.486Z,29.33
2023-02-23T17:55:17.677Z,24.27
2023-02-23T17:57:44.821Z,32.90
2023-02-23T18:00:13.444Z,30.13
2023-02-23T18:02:40.934Z,28.07
2023-02-23T18:05:08.622Z,29.93
2023-02-23T18:07:35.915Z,34.93
2023-02-23T18:10:12.999Z,29.90
2023-02-23T18:12:40.458Z,28.20
2023-02-23T18:15:12.551Z,30.83
2023-02-23T18:17:39.412Z,29.83
2023-02-23T18:20:06.865Z,27.63
2023-02-23T18:22:33.833Z,33.83
2023-02-23T18:25:02.750Z,30.87
2023-02-23T18:27:29.754Z,27.90
2023-02-23T18:29:59.628Z,33.17
2023-02-23T18:32:26.745Z,31.37
2023-02-23T18:34:56.770Z,29.13
2023-02-23T18:37:25.561Z,27.87
2023-02-23T18:39:53.876Z,31.60
2023-02-23T18:42:23.267Z,31.13
2023-02-23T18:44:50.386Z,32.13
2023-02-23T18:47:17.502Z,30.63
2023-02-23T18:49:44.459Z,31.67
2023-02-23T18:52:13.823Z,33.63
2023-02-23T18:54:40.939Z,33.00
2023-02-23T18:57:07.809Z,30.90
2023-02-23T18:59:34.720Z,33.87
2023-02-23T19:02:01.982Z,30.63
2023-02-23T19:04:28.912Z,34.37
2023-02-23T19:06:57.929Z,29.37
2023-02-23T19:09:27.376Z,33.07
2023-02-23T19:11:54.633Z,31.27
2023-02-23T19:14:32.863Z,34.27
2023-02-23T19:17:07.945Z,29.53
2023-02-23T19:19:34.719Z,32.03
2023-02-23T19:22:01.785Z,38.40
2023-02-23T19:24:31.003Z,32.33
2023-02-23T19:26:57.938Z,35.30
2023-02-23T19:29:29.772Z,31.50
2023-02-23T19:31:58.945Z,29.10
2023-02-23T19:34:26.713Z,28.27
2023-02-23T19:36:55.774Z,31.17
2023-02-23T19:39:22.674Z,29.00
2023-02-23T19:41:49.448Z,36.50
2023-02-23T19:44:16.301Z,27.77
2023-02-23T19:46:43.247Z,28.67
2023-02-23T19:49:13.013Z,37.13
2023-02-23T19:51:39.864Z,35.37
2023-02-23T19:54:07.565Z,28.27
2023-02-23T19:56:34.791Z,33.67
2023-02-23T19:59:02.336Z,31.07
2023-02-23T20:01:30.016Z,32.67
2023-02-23T20:04:06.512Z,33.07
2023-02-23T20:06:35.169Z,29.80
2023-02-23T20:09:02.613Z,32.63
2023-02-23T20:11:32.902Z,35.67
2023-02-23T20:14:00.461Z,31.17
2023-02-23T20:16:29.587Z,34.03
2023-02-23T20:18:59.750Z,35.47
2023-02-23T20:21:27.547Z,33.37
2023-02-23T20:23:57.028Z,34.63
2023-02-23T20:26:26.541Z,34.13
2023-02-23T20:28:54.031Z,30.80
2023-02-23T20:31:29.048Z,35.57
2023-02-23T20:33:56.401Z,36.37
2023-02-23T20:36:23.366Z,32.53
2023-02-23T20:38:50.152Z,35.63
2023-02-23T20:41:17.730Z,36.90
2023-02-23T20:43:46.781Z,41.87
2023-02-23T20:46:14.476Z,40.07
2023-02-23T20:48:41.861Z,36.67
2023-02-23T20:51:12.775Z,37.63
2023-02-23T20:53:40.137Z,41.23
2023-02-23T20:56:07.895Z,36.43
2023-02-23T20:58:34.696Z,40.60
2023-02-23T21:01:10.532Z,41.10
2023-02-23T21:03:37.379Z,35.63
2023-02-23T21:06:04.316Z,38.27
2023-02-23T21:08:31.220Z,37.37
2023-02-23T21:10:57.986Z,40.13
2023-02-23T21:13:26.527Z,43.43
2023-02-23T21:16:01.126Z,43.03
2023-02-23T21:18:28.805Z,46.43
2023-02-23T21:20:59.351Z,40.07
2023-02-23T21:23:26.234Z,46.97
2023-02-23T21:26:01.218Z,42.10
2023-02-23T21:28:28.002Z,43.07
2023-02-23T21:30:57.319Z,50.87
2023-02-23T21:33:26.555Z,46.00
2023-02-23T21:35:55.192Z,42.47
2023-02-23T21:38:28.126Z,46.60
2023-02-23T21:40:57.141Z,43.07
2023-02-23T21:43:28.077Z,45.83
2023-02-23T21:45:55.115Z,46.27
2023-02-23T21:48:21.960Z,51.40
2023-02-23T21:50:48.879Z,46.53
2023-02-23T21:53:15.691Z,47.83
2023-02-23T21:55:42.484Z,50.90
2023-02-23T21:58:09.771Z,52.70
2023-02-23T22:00:36.940Z,50.23
2023-02-23T22:03:03.946Z,52.40
2023-02-23T22:05:30.744Z,47.87
2023-02-23T22:07:57.527Z,53.23
2023-02-23T22:10:24.636Z,55.00
2023-02-23T22:12:56.129Z,51.07
2023-02-23T22:15:29.894Z,47.97
2023-02-23T22:17:59.221Z,54.30
2023-02-23T22:20:28.229Z,56.43
2023-02-23T22:22:55.034Z,54.73
2023-02-23T22:25:21.856Z,55.17
2023-02-23T22:27:48.658Z,58.17
2023-02-23T22:30:15.787Z,52.57
2023-02-23T22:32:43.228Z,54.07
2023-02-23T22:35:10.389Z,53.13
2023-02-23T22:37:37.296Z,49.37
2023-02-23T22:40:16.676Z,56.83
2023-02-23T22:42:49.658Z,58.97
2023-02-23T22:45:16.905Z,53.40
2023-02-23T22:47:43.650Z,54.07
2023-02-23T22:50:14.036Z,54.63
2023-02-23T22:52:42.985Z,58.93
2023-02-23T22:55:10.824Z,55.63
2023-02-23T22:57:37.651Z,56.03
2023-02-23T23:00:07.128Z,54.23
2023-02-23T23:02:36.394Z,59.00
2023-02-23T23:05:05.513Z,53.87
2023-02-23T23:07:32.511Z,56.80
2023-02-23T23:10:03.788Z,58.07
2023-02-23T23:12:31.908Z,51.70
2023-02-23T23:15:01.471Z,56.43
2023-02-23T23:17:33.727Z,60.33
2023-02-23T23:20:00.487Z,57.30
2023-02-23T23:22:27.560Z,63.07
2023-02-23T23:24:57.153Z,63.77
2023-02-23T23:27:26.571Z,59.17
2023-02-23T23:29:53.405Z,60.90
2023-02-23T23:32:27.524Z,55.40
2023-02-23T23:34:59.888Z,59.47
2023-02-23T23:37:29.167Z,61.20
2023-02-23T23:40:04.877Z,62.53
2023-02-23T23:42:31.792Z,61.80
2023-02-23T23:44:58.556Z,61.17
2023-02-23T23:47:30.449Z,63.97
2023-02-23T23:49:58.169Z,60.87
2023-02-23T23:52:25.262Z,67.67
2023-02-23T23:54:52.028Z,58.07
2023-02-23T23:57:18.816Z,62.27
2023-02-23T23:59:45.962Z,60.33
